Boka — J8B4647 — position and weather

sailwx.info

Track history (hours):
 
Tides and Currents Weather Stations Pressure Air Temp Water Temp Dewpoint Dewpoint Depression Visibility Wind Speed Wind Dir Waves Ship Positions

Boka

Last reported at 2017-Oct-18 02:47 UTC. Time now 2017-Oct-18 03:41 UTC.
Position N 36°44' E 000°32'.

Length 177 m; draft 9.6 m.

Type: Ship. MMSI: 376207000.

Date/timePositionNaut miles runAvg speedWind from/ knotsBaromVisibWave heightAir tempDewpointWater temp
2017-Oct-18 02:47N 36°44' E 000°32'1012.5
2017-Oct-18 02:00N 36°45' E 000°44'712.7
2017-Oct-18 01:27N 36°46' E 000°53'3512.5
2017-Oct-17 22:36N 36°51' E 001°36'212.2
2017-Oct-17 22:29N 36°51' E 001°38'2612.3
2017-Oct-17 20:21N 36°56' E 002°10'28512.2
2017-Oct-16 21:00N 37°31' E 008°06'3712.4
2017-Oct-16 18:02N 37°36' E 008°52'612.6
2017-Oct-16 17:33N 37°37' E 008°59'112.3
2017-Oct-16 17:30N 37°37' E 009°00'612.4
2017-Oct-16 17:00N 37°37' E 009°08'1012.2
2017-Oct-16 16:13N 37°37' E 009°20'412.0
2017-Oct-16 15:53N 37°37' E 009°25'512.0
2017-Oct-16 15:29N 37°38' E 009°31'612.1
2017-Oct-16 14:59N 37°38' E 009°38'612.3
2017-Oct-16 14:30N 37°38' E 009°46'11512.2
2017-Oct-16 05:04N 37°12' E 012°07'212.2
2017-Oct-16 04:54N 37°12' E 012°10'512.4
2017-Oct-16 04:30N 37°10' E 012°15'612.5
2017-Oct-16 03:59N 37°08' E 012°23'712.2
2017-Oct-16 03:25N 37°06' E 012°31'612.2
2017-Oct-16 02:57N 37°04' E 012°38'712.3
2017-Oct-16 02:24N 37°03' E 012°46'512.1
2017-Oct-16 02:00N 37°01' E 012°52'611.8
2017-Oct-16 01:27N 36°60' E 012°60'511.7
2017-Oct-16 01:00N 36°58' E 013°06'711.8
2017-Oct-16 00:23N 36°56' E 013°15'511.9
2017-Oct-16 00:00N 36°54' E 013°20'611.8
2017-Oct-15 23:30N 36°53' E 013°27'611.8
2017-Oct-15 23:00N 36°51' E 013°34'611.8
2017-Oct-15 22:30N 36°49' E 013°41'611.7
2017-Oct-15 22:00N 36°48' E 013°48'611.6
2017-Oct-15 21:30N 36°46' E 013°55'611.6
2017-Oct-15 21:00N 36°45' E 014°02'611.5
2017-Oct-15 20:30N 36°44' E 014°09'611.8
2017-Oct-15 20:00N 36°42' E 014°17'612.0
2017-Oct-15 19:30N 36°41' E 014°24'612.4
2017-Oct-15 19:00N 36°40' E 014°31'612.5
2017-Oct-15 18:30N 36°38' E 014°39'612.4
2017-Oct-15 18:00N 36°37' E 014°47'612.3
2017-Oct-15 17:29N 36°36' E 014°54'612.2
2017-Oct-15 17:00N 36°35' E 015°02'712.2
2017-Oct-15 16:26N 36°34' E 015°10'512.2
2017-Oct-15 16:00N 36°34' E 015°17'1412.3
2017-Oct-15 14:52N 36°34' E 015°34'1312.6
2017-Oct-15 13:51N 36°33' E 015°50'512.7
2017-Oct-15 13:30N 36°33' E 015°56'43911.0
2017-Oct-13 21:39N 38°22' E 024°51'8812.7
2017-Oct-13 14:46N 39°39' E 025°42'712.1
2017-Oct-13 14:11N 39°46' E 025°47'1412.6
2017-Oct-13 13:05N 39°58' E 025°56'112.9
2017-Oct-13 13:00N 39°59' E 025°56'712.0
2017-Oct-13 12:27N 40°01' E 026°04'  
Track history (hours):
 
Tides and Currents Weather Stations Pressure Air Temp Water Temp Dewpoint Dewpoint Depression Visibility Wind Speed Wind Dir Waves Ship Positions

Boka

Last reported at 2017-Oct-18 02:47 UTC. Time now 2017-Oct-18 03:41 UTC.
Position N 36°44' E 000°32'.

Length 177 m; draft 9.6 m.

Type: Ship. MMSI: 376207000.

Date/timePositionNaut miles runAvg speedWind from/ knotsBaromVisibWave heightAir tempDewpointWater temp
2017-Oct-18 02:47N 36°44' E 000°32'1012.5
2017-Oct-18 02:00N 36°45' E 000°44'712.7
2017-Oct-18 01:27N 36°46' E 000°53'3512.5
2017-Oct-17 22:36N 36°51' E 001°36'212.2
2017-Oct-17 22:29N 36°51' E 001°38'2612.3
2017-Oct-17 20:21N 36°56' E 002°10'28512.2
2017-Oct-16 21:00N 37°31' E 008°06'3712.4
2017-Oct-16 18:02N 37°36' E 008°52'612.6
2017-Oct-16 17:33N 37°37' E 008°59'112.3
2017-Oct-16 17:30N 37°37' E 009°00'612.4
2017-Oct-16 17:00N 37°37' E 009°08'1012.2
2017-Oct-16 16:13N 37°37' E 009°20'412.0
2017-Oct-16 15:53N 37°37' E 009°25'512.0
2017-Oct-16 15:29N 37°38' E 009°31'612.1
2017-Oct-16 14:59N 37°38' E 009°38'612.3
2017-Oct-16 14:30N 37°38' E 009°46'11512.2
2017-Oct-16 05:04N 37°12' E 012°07'212.2
2017-Oct-16 04:54N 37°12' E 012°10'512.4
2017-Oct-16 04:30N 37°10' E 012°15'612.5
2017-Oct-16 03:59N 37°08' E 012°23'712.2
2017-Oct-16 03:25N 37°06' E 012°31'612.2
2017-Oct-16 02:57N 37°04' E 012°38'712.3
2017-Oct-16 02:24N 37°03' E 012°46'512.1
2017-Oct-16 02:00N 37°01' E 012°52'611.8
2017-Oct-16 01:27N 36°60' E 012°60'511.7
2017-Oct-16 01:00N 36°58' E 013°06'711.8
2017-Oct-16 00:23N 36°56' E 013°15'511.9
2017-Oct-16 00:00N 36°54' E 013°20'611.8
2017-Oct-15 23:30N 36°53' E 013°27'611.8
2017-Oct-15 23:00N 36°51' E 013°34'611.8
2017-Oct-15 22:30N 36°49' E 013°41'611.7
2017-Oct-15 22:00N 36°48' E 013°48'611.6
2017-Oct-15 21:30N 36°46' E 013°55'611.6
2017-Oct-15 21:00N 36°45' E 014°02'611.5
2017-Oct-15 20:30N 36°44' E 014°09'611.8
2017-Oct-15 20:00N 36°42' E 014°17'612.0
2017-Oct-15 19:30N 36°41' E 014°24'612.4
2017-Oct-15 19:00N 36°40' E 014°31'612.5
2017-Oct-15 18:30N 36°38' E 014°39'612.4
2017-Oct-15 18:00N 36°37' E 014°47'612.3
2017-Oct-15 17:29N 36°36' E 014°54'612.2
2017-Oct-15 17:00N 36°35' E 015°02'712.2
2017-Oct-15 16:26N 36°34' E 015°10'512.2
2017-Oct-15 16:00N 36°34' E 015°17'1412.3
2017-Oct-15 14:52N 36°34' E 015°34'1312.6
2017-Oct-15 13:51N 36°33' E 015°50'512.7
2017-Oct-15 13:30N 36°33' E 015°56'43911.0
2017-Oct-13 21:39N 38°22' E 024°51'8812.7
2017-Oct-13 14:46N 39°39' E 025°42'712.1
2017-Oct-13 14:11N 39°46' E 025°47'1412.6
2017-Oct-13 13:05N 39°58' E 025°56'112.9
2017-Oct-13 13:00N 39°59' E 025°56'712.0
2017-Oct-13 12:27N 40°01' E 026°04'  

Dump ship's entire track history